Flight Track Log - Related Links

Times and Time Zones

All times are in EDT time to prevent confusion due to time zone crossing. See the ASQ5678 flight status page for this flight to view local times or setup timezone preferences in your user account.


Time Position Orientation Groundspeed Altitude Reporting Facility
EDT Latitude Longitude Course Direction KTS MPH feet Rate Location/Type
Wed 10:09:00 PM 29.9550 -95.3394 291° West 168 193 800  Level Houston Center
Wed 10:09:48 PM 29.9211 -95.3581 205° Southwest 219 252 2,000 1,500 Climbing Houston Center
Wed 10:10:16 PM 29.9086 -95.3811 238° Southwest 229 264 2,700 2,066 Climbing Houston Center
Wed 10:10:49 PM 29.9108 -95.4317 273° West 265 305 4,100 2,361 Climbing Houston Center
Wed 10:11:17 PM 29.9178 -95.4594 286° West 251 289 5,100 2,852 Climbing Houston Center
Wed 10:11:50 PM 29.9311 -95.5161 285° West 264 304 7,000 2,951 Climbing Houston Center
Wed 10:12:00 PM 30.0342 -95.8099 276° West  Level FlightAware Approximate
Wed 10:12:18 PM 29.9389 -95.5400 291° West 262 302 8,100  Level Houston Center
Wed 10:13:00 PM 30.0442 -95.9298 276° West  Level FlightAware Approximate
Wed 10:13:19 PM 29.9600 -95.6203 287° West 261 300 9,900  Level Houston Center
Wed 10:14:00 PM 30.0655 -96.0466 291° West  Level FlightAware Approximate
Wed 10:14:20 PM 29.9833 -95.7133 286° West 295 339 11,000  Level Houston Center
Wed 10:15:20 PM 30.0086 -95.8147 286° West 327 376 12,800 2,033 Climbing Houston Center
Wed 10:16:21 PM 30.0381 -95.9361 286° West 328 377 15,100 1,967 Climbing Houston Center
Wed 10:17:22 PM 30.0625 -96.0317 286° West 329 379 16,800 1,328 Climbing Houston Center
Wed 10:18:23 PM 30.0775 -96.1400 279° West 340 391 17,800 984 Climbing Houston Center
Wed 10:19:24 PM 30.0597 -96.2608 260° West 378 435 18,800 984 Climbing Houston Center
Wed 10:20:25 PM 30.0428 -96.3833 261° West 388 447 19,800 1,033 Climbing Houston Center
Wed 10:21:26 PM 30.0247 -96.5100 261° West 399 459 20,900 1,180 Climbing Houston Center
Wed 10:22:27 PM 30.0072 -96.6353 261° West 399 459 22,200 1,230 Climbing Houston Center
Wed 10:23:28 PM 29.9903 -96.7606 261° West 398 458 23,400 1,180 Climbing Houston Center
Wed 10:24:29 PM 29.9689 -96.9117 261° West 400 460 24,600 1,082 Climbing Houston Center
Wed 10:25:30 PM 29.9506 -97.0375 260° West 401 461 25,600 984 Climbing Houston Center
Wed 10:26:31 PM 29.9319 -97.1669 261° West 409 471 26,600 1,131 Climbing Houston Center
Wed 10:27:32 PM 29.9136 -97.2922 260° West 403 464 27,900 694 Climbing Houston Center
Wed 10:28:32 PM 29.8958 -97.4183 261° West 402 463 28,000 50 Climbing Houston Center
Wed 10:29:33 PM 29.8725 -97.5697 260° West 424 488 28,000  Level Houston Center
Wed 10:30:34 PM 29.8525 -97.7069 260° West 435 501 28,000 787 Level Houston Center
Wed 10:31:35 PM 29.8319 -97.8447 260° West 436 502 29,600 1,869 Climbing Houston Center
Wed 10:32:36 PM 29.8142 -97.9686 261° West 396 456 31,800 1,180 Climbing Houston Center
Wed 10:33:37 PM 29.7942 -98.1003 260° West 390 449 32,000 295 Climbing Houston Center
Wed 10:34:38 PM 29.7744 -98.2325 260° West 418 481 32,400 934 Climbing Houston Center
Wed 10:35:39 PM 29.7539 -98.3628 260° West 415 478 33,900 787 Climbing Houston Center
Wed 10:36:40 PM 29.7153 -98.4875 250° West 417 480 34,000 49 Climbing Houston Center
Wed 10:37:41 PM 29.6719 -98.6283 251° West 437 503 34,000  Level Houston Center
Wed 10:38:42 PM 29.6325 -98.7642 252° West 449 517 34,000  Level Houston Center
Wed 10:39:43 PM 29.5933 -98.9022 252° West 456 525 34,000  Level Houston Center
Wed 10:40:44 PM 29.5547 -99.0408 252° West 456 525 34,000  Level Houston Center
Wed 10:41:45 PM 29.5103 -99.1853 251° West 448 516 34,000  Level Houston Center
Wed 10:42:46 PM 29.4675 -99.3175 250° West 444 511 34,000 -49 Level Houston Center
Wed 10:43:47 PM 29.4311 -99.4306 250° West 448 516 33,900 -49 Descending Houston Center
Wed 10:44:48 PM 29.3883 -99.5694 251° West 460 529 33,900 496 Level Houston Center
Wed 10:45:48 PM 29.3469 -99.7061 251° West 457 526 34,900 1,041 Climbing Houston Center
Wed 10:46:49 PM 29.2939 -99.8603 248° West 446 513 36,000 541 Climbing Houston Center
Wed 10:47:50 PM 29.2486 -99.9822 247° West 430 495 36,000 -49 Level Houston Center
Wed 10:48:51 PM 29.2250 -100.1028 257° West 398 458 35,900 -49 Descending Houston Center
Wed 10:49:52 PM 29.2475 -100.2269 282° West 402 463 35,900 49 Level Houston Center
Wed 10:50:53 PM 29.2739 -100.3536 283° West 408 470 36,000 49 Climbing Houston Center
Wed 10:51:54 PM 29.3022 -100.4844 284° West 419 482 36,000 -49 Level Houston Center
Wed 10:52:55 PM 29.3281 -100.6192 282° West 431 496 35,900  Descending Houston Center
Wed 10:53:56 PM 29.3692 -100.7517 290° West 454 522 36,000  Climbing Houston Center
Wed 10:54:56 PM 29.4550 -100.8508 315° West 442 509 35,900  Descending Houston Center
Wed 10:55:57 PM 29.5347 -100.9469 314° West 421 484 36,000 49 Climbing Houston Center
Wed 10:56:58 PM 29.6139 -101.0486 312° West 426 490 36,000  Level Houston Center
Wed 10:58:00 PM 29.6881 -101.1556 309° West 423 487 36,000 -49 Level Houston Center
Wed 10:59:01 PM 29.7581 -101.2656 306° West 428 493 35,900  Descending Houston Center
Wed 11:00:02 PM 29.8303 -101.3764 307° West 432 497 36,000 50 Climbing Houston Center
Wed 11:01:02 PM 29.9033 -101.4894 307° West 438 504 36,000  Level Houston Center
Wed 11:02:03 PM 29.9789 -101.6042 307° West 447 514 36,000  Level Houston Center
Wed 11:03:04 PM 30.0583 -101.7136 310° West 448 516 36,000  Level Houston Center
Wed 11:04:05 PM 30.1572 -101.7950 325° Northwest 429 494 36,000  Level Houston Center
Wed 11:05:06 PM 30.2647 -101.8858 324° Northwest 433 498 36,000  Level Houston Center
Wed 11:06:07 PM 30.3636 -101.9672 325° Northwest 438 504 36,000  Level Albuquerque Center
Wed 11:08:09 PM 30.5544 -102.1325 323° Northwest 423 487 36,000  Level Albuquerque Center
Wed 11:09:11 PM 30.6694 -102.2306 324° Northwest 424 488 36,000  Level Albuquerque Center
Wed 11:10:12 PM 30.7672 -102.3150 323° Northwest 431 496 36,000  Level Albuquerque Center
Wed 11:11:14 PM 30.8672 -102.4022 323° Northwest 442 509 36,000  Level Albuquerque Center
Wed 11:12:15 PM 30.9681 -102.4894 323° Northwest 446 513 36,000  Level Albuquerque Center
Wed 11:13:16 PM 31.0700 -102.5792 323° Northwest 452 520 36,000  Level Albuquerque Center
Wed 11:14:18 PM 31.1717 -102.6678 323° Northwest 450 518 36,000  Level Albuquerque Center
Wed 11:15:19 PM 31.2722 -102.7564 323° Northwest 450 518 36,000  Level Albuquerque Center
Wed 11:16:21 PM 31.3711 -102.8436 323° Northwest 445 512 36,000 -49 Level Albuquerque Center
Wed 11:17:22 PM 31.4678 -102.9286 323° Northwest 436 502 35,900  Descending Albuquerque Center
Wed 11:18:24 PM 31.5628 -103.0131 323° Northwest 431 496 36,000 70 Climbing Albuquerque Center
Wed 11:18:48 PM 31.6019 -103.0464 324° Northwest 431 496 36,000 -70 Level Albuquerque Center
Wed 11:19:50 PM 31.6975 -103.1319 323° Northwest 431 496 35,900  Descending Albuquerque Center
Wed 11:20:51 PM 31.8117 -103.2331 323° Northwest 428 493 36,000 49 Climbing Albuquerque Center
Wed 11:21:53 PM 31.8903 -103.3028 323° Northwest 425 489 36,000  Level Albuquerque Center
Wed 11:22:54 PM 31.9836 -103.3878 322° Northwest 423 487 36,000  Level Albuquerque Center
Wed 11:23:55 PM 32.0997 -103.4922 323° Northwest 431 496 36,000  Level Albuquerque Center
Wed 11:24:57 PM 32.1939 -103.5758 323° Northwest 427 491 36,000  Level Albuquerque Center
Wed 11:25:58 PM 32.2850 -103.6592 322° Northwest 418 481 36,000  Level Albuquerque Center
Wed 11:27:00 PM 32.3786 -103.7428 323° Northwest 417 480 36,000  Level Albuquerque Center
Wed 11:28:01 PM 32.4725 -103.8294 322° Northwest 426 490 36,000  Level Albuquerque Center
Wed 11:29:03 PM 32.5686 -103.9161 323° Northwest 430 495 36,000  Level Albuquerque Center
Wed 11:30:04 PM 32.6761 -104.0103 324° Northwest 438 504 36,000  Level Albuquerque Center
Wed 11:31:06 PM 32.7806 -104.1044 323° Northwest 437 503 36,000  Level Albuquerque Center
Wed 11:32:07 PM 32.8761 -104.1931 322° Northwest 434 499 36,000  Level Albuquerque Center
Wed 11:33:09 PM 32.9708 -104.2806 322° Northwest 431 496 36,000  Level Albuquerque Center
Wed 11:34:10 PM 33.0717 -104.3747 322° Northwest 427 491 36,000  Level Albuquerque Center
Wed 11:35:12 PM 33.1658 -104.4619 322° Northwest 427 491 36,000  Level Albuquerque Center
Wed 11:36:13 PM 33.2533 -104.5447 322° Northwest 426 490 36,000  Level Albuquerque Center
Wed 11:37:15 PM 33.3539 -104.6406 321° Northwest 425 489 36,000  Level Albuquerque Center
Wed 11:38:16 PM 33.4419 -104.7286 320° Northwest 414 476 36,000  Level Albuquerque Center
Wed 11:39:18 PM 33.5339 -104.8228 320° Northwest 404 465 36,000 -195 Level Albuquerque Center
Wed 11:40:19 PM 33.6189 -104.9089 320° Northwest 400 460 35,600 -634 Descending Albuquerque Center
Wed 11:41:21 PM 33.7064 -104.9981 320° Northwest 409 471 34,700 -927 Descending Albuquerque Center
Wed 11:42:22 PM 33.7961 -105.0892 320° Northwest 420 483 33,700 -934 Descending Albuquerque Center
Wed 11:43:23 PM 33.8894 -105.1858 319° Northwest 411 473 32,800 -829 Descending Albuquerque Center
Wed 11:44:25 PM 33.9772 -105.2742 320° Northwest 407 468 32,000 -390 Descending Albuquerque Center
Wed 11:45:26 PM 34.0650 -105.3644 320° Northwest 408 470 32,000  Level Albuquerque Center
Wed 11:46:28 PM 34.1525 -105.4547 320° Northwest 410 472 32,000 -98 Level Albuquerque Center
Wed 11:47:29 PM 34.2392 -105.5458 319° Northwest 409 471 31,800 -1,033 Descending Albuquerque Center
Wed 11:48:30 PM 34.3253 -105.6333 320° Northwest 405 466 29,900 -2,049 Descending Albuquerque Center
Wed 11:49:32 PM 34.4189 -105.7172 324° Northwest 414 476 27,600 -2,098 Descending Albuquerque Center
Wed 11:50:33 PM 34.5211 -105.7903 330° Northwest 419 482 25,600 -1,730 Descending Albuquerque Center
Wed 11:51:23 PM 34.6047 -105.8556 327° Northwest 407 468 24,400 -2,025 Descending Albuquerque Center
Wed 11:51:53 PM 34.6489 -105.8878 329° Northwest 395 455 22,900 -3,123 Descending Albuquerque Center
Wed 11:52:36 PM 34.7108 -105.9303 331° Northwest 395 455 20,600 -3,541 Descending Albuquerque Center
Wed 11:52:54 PM 34.7433 -105.9608 322° Northwest 375 432 19,300 -3,049 Descending Albuquerque Center
Wed 11:53:37 PM 34.8011 -105.9983 332° Northwest 383 441 17,500 -2,423 Descending Albuquerque Center
Wed 11:54:38 PM 34.8814 -106.0744 322° Northwest 370 426 15,100 -1,220 Descending Albuquerque Center
Wed 11:55:40 PM 34.9008 -106.1814 283° West 329 379 15,000 -341 Descending Albuquerque Center
Wed 11:56:41 PM 34.9219 -106.2903 283° West 325 374 14,400 -711 Descending Albuquerque Center
Wed 11:56:56 PM 34.9278 -106.3344 279° West 338 389 14,100 -1,475 Descending Albuquerque Center
Wed 11:57:42 PM 34.9411 -106.4050 283° West 342 394 12,900 -1,770 Descending Albuquerque Center
Wed 11:57:57 PM 34.9456 -106.4467 277° West 343 395 12,300 -1,935 Descending Albuquerque Center
Wed 11:58:44 PM 34.9197 -106.5033 241° Southwest 322 371 10,900 -1,473 Descending Albuquerque Center
Wed 11:59:47 PM 34.8750 -106.5883 237° Southwest 307 353 9,600 -1,355 Descending Albuquerque Center
Thu 12:00:48 AM 34.8444 -106.6850 249° West 287 330 8,100 -1,033 Descending Albuquerque Center
Thu 12:01:49 AM 34.8928 -106.7253 326° Northwest 237 273 7,500 -393 Descending Albuquerque Center
Thu 12:02:50 AM 34.9433 -106.7214 North 203 234 7,300 -197 Descending Albuquerque Center

Login

Don't have an account? Register now (free) for customized features, flight alerts, and more!